sensor_id;sensor_type;location;lat;lon;timestamp;P1;durP1;ratioP1;P2;durP2;ratioP2
69419;SDS011;56612;52.030;113.524;2022-10-15T00:02:36;4.17;;;1.30;;
69419;SDS011;56612;52.030;113.524;2022-10-15T00:05:40;4.47;;;1.10;;
69419;SDS011;56612;52.030;113.524;2022-10-15T00:08:43;3.42;;;1.08;;
69419;SDS011;56612;52.030;113.524;2022-10-15T00:11:48;4.63;;;1.30;;
69419;SDS011;56612;52.030;113.524;2022-10-15T00:14:51;8.90;;;3.23;;
69419;SDS011;56612;52.030;113.524;2022-10-15T00:17:55;6.00;;;1.40;;
69419;SDS011;56612;52.030;113.524;2022-10-15T00:20:59;6.78;;;1.40;;
69419;SDS011;56612;52.030;113.524;2022-10-15T00:24:03;4.68;;;1.00;;
69419;SDS011;56612;52.030;113.524;2022-10-15T00:27:06;5.38;;;1.58;;
69419;SDS011;56612;52.030;113.524;2022-10-15T00:30:10;5.53;;;1.33;;
69419;SDS011;56612;52.030;113.524;2022-10-15T00:33:14;3.33;;;1.10;;
69419;SDS011;56612;52.030;113.524;2022-10-15T00:36:21;3.55;;;0.82;;
69419;SDS011;56612;52.030;113.524;2022-10-15T00:39:27;4.38;;;1.02;;
69419;SDS011;56612;52.030;113.524;2022-10-15T00:42:31;4.97;;;1.10;;
69419;SDS011;56612;52.030;113.524;2022-10-15T00:45:35;4.47;;;1.43;;
69419;SDS011;56612;52.030;113.524;2022-10-15T00:48:39;4.37;;;0.73;;
69419;SDS011;56612;52.030;113.524;2022-10-15T00:51:44;3.70;;;0.90;;
69419;SDS011;56612;52.030;113.524;2022-10-15T00:54:57;4.03;;;1.10;;
69419;SDS011;56612;52.030;113.524;2022-10-15T00:58:07;4.80;;;0.75;;
69419;SDS011;56612;52.030;113.524;2022-10-15T01:01:18;7.77;;;2.20;;
69419;SDS011;56612;52.030;113.524;2022-10-15T01:04:23;5.00;;;1.40;;
69419;SDS011;56612;52.030;113.524;2022-10-15T01:07:26;5.28;;;1.65;;
69419;SDS011;56612;52.030;113.524;2022-10-15T01:10:43;9.20;;;2.10;;
69419;SDS011;56612;52.030;113.524;2022-10-15T01:14:06;6.68;;;2.00;;
69419;SDS011;56612;52.030;113.524;2022-10-15T01:20:51;13.47;;;2.87;;
69419;SDS011;56612;52.030;113.524;2022-10-15T01:24:20;9.27;;;1.67;;
69419;SDS011;56612;52.030;113.524;2022-10-15T01:27:42;9.10;;;2.03;;
69419;SDS011;56612;52.030;113.524;2022-10-15T01:30:53;5.28;;;1.10;;
69419;SDS011;56612;52.030;113.524;2022-10-15T01:34:20;5.90;;;2.00;;
69419;SDS011;56612;52.030;113.524;2022-10-15T01:40:50;3.58;;;1.00;;
69419;SDS011;56612;52.030;113.524;2022-10-15T01:44:24;4.60;;;0.65;;
69419;SDS011;56612;52.030;113.524;2022-10-15T01:48:09;5.13;;;0.68;;
69419;SDS011;56612;52.030;113.524;2022-10-15T01:51:14;6.10;;;1.40;;
69419;SDS011;56612;52.030;113.524;2022-10-15T01:54:20;3.07;;;0.90;;
69419;SDS011;56612;52.030;113.524;2022-10-15T01:57:27;6.97;;;1.08;;
69419;SDS011;56612;52.030;113.524;2022-10-15T02:00:34;2.95;;;0.55;;
69419;SDS011;56612;52.030;113.524;2022-10-15T02:03:45;5.70;;;1.65;;
69419;SDS011;56612;52.030;113.524;2022-10-15T02:07:56;9.17;;;0.80;;
69419;SDS011;56612;52.030;113.524;2022-10-15T02:13:57;7.55;;;0.80;;
69419;SDS011;56612;52.030;113.524;2022-10-15T02:17:08;3.08;;;0.52;;
69419;SDS011;56612;52.030;113.524;2022-10-15T02:20:18;4.45;;;0.70;;
69419;SDS011;56612;52.030;113.524;2022-10-15T02:23:29;6.83;;;2.37;;
69419;SDS011;56612;52.030;113.524;2022-10-15T02:26:57;5.77;;;1.20;;
69419;SDS011;56612;52.030;113.524;2022-10-15T02:30:05;2.60;;;0.60;;
69419;SDS011;56612;52.030;113.524;2022-10-15T02:33:10;6.53;;;0.90;;
69419;SDS011;56612;52.030;113.524;2022-10-15T02:36:15;7.55;;;1.00;;
69419;SDS011;56612;52.030;113.524;2022-10-15T02:39:21;3.07;;;0.90;;
69419;SDS011;56612;52.030;113.524;2022-10-15T02:42:27;8.00;;;1.40;;
69419;SDS011;56612;52.030;113.524;2022-10-15T02:45:30;4.13;;;0.80;;
69419;SDS011;56612;52.030;113.524;2022-10-15T02:48:34;3.58;;;0.82;;
69419;SDS011;56612;52.030;113.524;2022-10-15T02:51:37;8.13;;;1.20;;
69419;SDS011;56612;52.030;113.524;2022-10-15T02:54:40;5.43;;;0.90;;
69419;SDS011;56612;52.030;113.524;2022-10-15T02:57:44;5.20;;;1.10;;
69419;SDS011;56612;52.030;113.524;2022-10-15T03:00:50;6.05;;;1.00;;
69419;SDS011;56612;52.030;113.524;2022-10-15T03:03:53;7.03;;;0.85;;
69419;SDS011;56612;52.030;113.524;2022-10-15T03:06:58;9.18;;;0.80;;
69419;SDS011;56612;52.030;113.524;2022-10-15T03:10:02;10.33;;;0.77;;
69419;SDS011;56612;52.030;113.524;2022-10-15T03:13:06;5.37;;;0.63;;
69419;SDS011;56612;52.030;113.524;2022-10-15T03:16:18;6.68;;;1.13;;
69419;SDS011;56612;52.030;113.524;2022-10-15T03:19:22;7.75;;;1.20;;
69419;SDS011;56612;52.030;113.524;2022-10-15T03:22:27;2.90;;;0.80;;
69419;SDS011;56612;52.030;113.524;2022-10-15T03:25:32;4.53;;;1.10;;
69419;SDS011;56612;52.030;113.524;2022-10-15T03:28:37;12.03;;;3.17;;
69419;SDS011;56612;52.030;113.524;2022-10-15T03:31:43;8.07;;;2.70;;
69419;SDS011;56612;52.030;113.524;2022-10-15T03:34:47;7.00;;;1.42;;
69419;SDS011;56612;52.030;113.524;2022-10-15T03:37:52;6.32;;;0.85;;
69419;SDS011;56612;52.030;113.524;2022-10-15T03:40:57;12.10;;;1.40;;
69419;SDS011;56612;52.030;113.524;2022-10-15T03:44:07;8.00;;;1.00;;
69419;SDS011;56612;52.030;113.524;2022-10-15T03:47:17;6.07;;;1.15;;
69419;SDS011;56612;52.030;113.524;2022-10-15T03:50:22;7.35;;;1.02;;
69419;SDS011;56612;52.030;113.524;2022-10-15T03:53:26;5.18;;;1.77;;
69419;SDS011;56612;52.030;113.524;2022-10-15T03:56:30;8.77;;;1.30;;
69419;SDS011;56612;52.030;113.524;2022-10-15T03:59:51;6.47;;;1.20;;
69419;SDS011;56612;52.030;113.524;2022-10-15T04:02:57;8.90;;;1.15;;
69419;SDS011;56612;52.030;113.524;2022-10-15T04:06:02;5.20;;;1.23;;
69419;SDS011;56612;52.030;113.524;2022-10-15T04:09:09;6.05;;;0.82;;
69419;SDS011;56612;52.030;113.524;2022-10-15T04:12:13;4.93;;;1.23;;
69419;SDS011;56612;52.030;113.524;2022-10-15T04:15:17;7.90;;;1.47;;
69419;SDS011;56612;52.030;113.524;2022-10-15T04:18:32;3.78;;;0.63;;
69419;SDS011;56612;52.030;113.524;2022-10-15T04:21:36;13.43;;;0.80;;
69419;SDS011;56612;52.030;113.524;2022-10-15T04:24:41;4.95;;;0.93;;
69419;SDS011;56612;52.030;113.524;2022-10-15T04:27:48;6.60;;;1.37;;
69419;SDS011;56612;52.030;113.524;2022-10-15T04:30:56;7.97;;;1.60;;
69419;SDS011;56612;52.030;113.524;2022-10-15T04:34:00;12.07;;;2.63;;
69419;SDS011;56612;52.030;113.524;2022-10-15T04:37:03;13.75;;;2.72;;
69419;SDS011;56612;52.030;113.524;2022-10-15T04:40:08;4.15;;;1.02;;
69419;SDS011;56612;52.030;113.524;2022-10-15T04:43:11;6.57;;;0.73;;
69419;SDS011;56612;52.030;113.524;2022-10-15T04:46:15;6.70;;;0.80;;
69419;SDS011;56612;52.030;113.524;2022-10-15T04:49:18;6.10;;;1.17;;
69419;SDS011;56612;52.030;113.524;2022-10-15T04:52:23;9.75;;;1.50;;
69419;SDS011;56612;52.030;113.524;2022-10-15T04:55:30;6.47;;;1.33;;
69419;SDS011;56612;52.030;113.524;2022-10-15T04:58:35;10.87;;;1.40;;
69419;SDS011;56612;52.030;113.524;2022-10-15T05:01:39;11.40;;;2.70;;
69419;SDS011;56612;52.030;113.524;2022-10-15T05:04:44;9.68;;;3.53;;
69419;SDS011;56612;52.030;113.524;2022-10-15T05:07:47;5.18;;;1.00;;
69419;SDS011;56612;52.030;113.524;2022-10-15T05:10:52;4.72;;;1.10;;
69419;SDS011;56612;52.030;113.524;2022-10-15T05:13:56;5.93;;;1.80;;
69419;SDS011;56612;52.030;113.524;2022-10-15T05:17:01;6.10;;;1.27;;
69419;SDS011;56612;52.030;113.524;2022-10-15T05:20:11;7.30;;;2.10;;
69419;SDS011;56612;52.030;113.524;2022-10-15T05:23:14;7.88;;;1.08;;
69419;SDS011;56612;52.030;113.524;2022-10-15T05:26:27;10.15;;;1.60;;
69419;SDS011;56612;52.030;113.524;2022-10-15T05:29:32;6.47;;;1.20;;
69419;SDS011;56612;52.030;113.524;2022-10-15T05:32:35;4.80;;;0.90;;
69419;SDS011;56612;52.030;113.524;2022-10-15T05:35:43;9.38;;;0.82;;
69419;SDS011;56612;52.030;113.524;2022-10-15T05:38:51;7.18;;;2.40;;
69419;SDS011;56612;52.030;113.524;2022-10-15T05:41:57;6.25;;;0.70;;
69419;SDS011;56612;52.030;113.524;2022-10-15T05:45:10;4.40;;;1.00;;
69419;SDS011;56612;52.030;113.524;2022-10-15T05:48:15;5.23;;;1.80;;
69419;SDS011;56612;52.030;113.524;2022-10-15T05:51:18;5.53;;;0.88;;
69419;SDS011;56612;52.030;113.524;2022-10-15T05:54:25;8.18;;;2.08;;
69419;SDS011;56612;52.030;113.524;2022-10-15T05:57:28;5.88;;;1.30;;
69419;SDS011;56612;52.030;113.524;2022-10-15T06:00:31;11.50;;;4.23;;
69419;SDS011;56612;52.030;113.524;2022-10-15T06:03:34;5.70;;;1.90;;
69419;SDS011;56612;52.030;113.524;2022-10-15T06:06:37;7.00;;;1.80;;
69419;SDS011;56612;52.030;113.524;2022-10-15T06:09:42;6.07;;;1.38;;
69419;SDS011;56612;52.030;113.524;2022-10-15T06:12:49;6.78;;;1.00;;
69419;SDS011;56612;52.030;113.524;2022-10-15T06:15:54;6.57;;;0.80;;
69419;SDS011;56612;52.030;113.524;2022-10-15T06:18:57;8.63;;;1.23;;
69419;SDS011;56612;52.030;113.524;2022-10-15T06:22:01;7.65;;;1.00;;
69419;SDS011;56612;52.030;113.524;2022-10-15T06:25:05;5.47;;;1.17;;
69419;SDS011;56612;52.030;113.524;2022-10-15T06:28:09;10.00;;;2.03;;
69419;SDS011;56612;52.030;113.524;2022-10-15T06:31:16;4.50;;;1.73;;
69419;SDS011;56612;52.030;113.524;2022-10-15T06:34:20;5.80;;;1.27;;
69419;SDS011;56612;52.030;113.524;2022-10-15T06:37:23;4.07;;;1.10;;
69419;SDS011;56612;52.030;113.524;2022-10-15T06:40:30;5.55;;;1.20;;
69419;SDS011;56612;52.030;113.524;2022-10-15T06:43:33;5.90;;;0.60;;
69419;SDS011;56612;52.030;113.524;2022-10-15T06:46:37;3.13;;;0.80;;
69419;SDS011;56612;52.030;113.524;2022-10-15T06:49:40;5.87;;;0.70;;
69419;SDS011;56612;52.030;113.524;2022-10-15T06:52:44;5.07;;;1.52;;
69419;SDS011;56612;52.030;113.524;2022-10-15T06:55:48;13.80;;;1.52;;
69419;SDS011;56612;52.030;113.524;2022-10-15T06:58:51;6.40;;;0.93;;
69419;SDS011;56612;52.030;113.524;2022-10-15T07:01:54;6.20;;;0.80;;
69419;SDS011;56612;52.030;113.524;2022-10-15T07:04:57;5.83;;;1.40;;
69419;SDS011;56612;52.030;113.524;2022-10-15T07:08:01;11.15;;;3.42;;
69419;SDS011;56612;52.030;113.524;2022-10-15T07:11:05;11.32;;;3.38;;
69419;SDS011;56612;52.030;113.524;2022-10-15T07:14:10;27.92;;;8.93;;
69419;SDS011;56612;52.030;113.524;2022-10-15T07:17:15;13.27;;;4.53;;
69419;SDS011;56612;52.030;113.524;2022-10-15T07:20:19;8.83;;;2.50;;
69419;SDS011;56612;52.030;113.524;2022-10-15T07:23:25;5.72;;;1.42;;
69419;SDS011;56612;52.030;113.524;2022-10-15T07:26:29;7.72;;;1.48;;
69419;SDS011;56612;52.030;113.524;2022-10-15T07:29:35;8.60;;;1.35;;
69419;SDS011;56612;52.030;113.524;2022-10-15T07:32:39;3.93;;;1.30;;
69419;SDS011;56612;52.030;113.524;2022-10-15T07:35:47;4.73;;;1.50;;
69419;SDS011;56612;52.030;113.524;2022-10-15T07:38:51;10.25;;;1.17;;
69419;SDS011;56612;52.030;113.524;2022-10-15T07:41:55;13.18;;;1.55;;
69419;SDS011;56612;52.030;113.524;2022-10-15T07:44:59;3.47;;;0.80;;
69419;SDS011;56612;52.030;113.524;2022-10-15T07:48:03;13.10;;;1.70;;
69419;SDS011;56612;52.030;113.524;2022-10-15T07:51:08;4.63;;;1.00;;
69419;SDS011;56612;52.030;113.524;2022-10-15T07:54:13;5.07;;;1.30;;
69419;SDS011;56612;52.030;113.524;2022-10-15T07:57:16;9.77;;;1.50;;
69419;SDS011;56612;52.030;113.524;2022-10-15T08:00:21;4.88;;;1.08;;
69419;SDS011;56612;52.030;113.524;2022-10-15T08:03:25;5.60;;;2.00;;
69419;SDS011;56612;52.030;113.524;2022-10-15T08:06:30;12.67;;;5.17;;
69419;SDS011;56612;52.030;113.524;2022-10-15T08:09:34;8.80;;;2.10;;
69419;SDS011;56612;52.030;113.524;2022-10-15T08:12:38;7.13;;;1.45;;
69419;SDS011;56612;52.030;113.524;2022-10-15T08:15:42;6.80;;;1.40;;
69419;SDS011;56612;52.030;113.524;2022-10-15T08:18:46;5.83;;;1.40;;
69419;SDS011;56612;52.030;113.524;2022-10-15T08:21:50;9.07;;;1.30;;
69419;SDS011;56612;52.030;113.524;2022-10-15T08:24:53;9.40;;;1.50;;
69419;SDS011;56612;52.030;113.524;2022-10-15T08:27:56;5.22;;;2.00;;
69419;SDS011;56612;52.030;113.524;2022-10-15T08:31:01;12.35;;;1.73;;
69419;SDS011;56612;52.030;113.524;2022-10-15T08:34:07;6.27;;;1.80;;
69419;SDS011;56612;52.030;113.524;2022-10-15T08:37:11;12.33;;;1.90;;
69419;SDS011;56612;52.030;113.524;2022-10-15T08:40:16;12.70;;;3.63;;
69419;SDS011;56612;52.030;113.524;2022-10-15T08:46:48;16.52;;;5.13;;
69419;SDS011;56612;52.030;113.524;2022-10-15T08:49:57;8.37;;;1.30;;
69419;SDS011;56612;52.030;113.524;2022-10-15T08:53:07;7.77;;;2.50;;
69419;SDS011;56612;52.030;113.524;2022-10-15T08:56:21;9.90;;;2.55;;
69419;SDS011;56612;52.030;113.524;2022-10-15T09:09:06;10.40;;;4.03;;
69419;SDS011;56612;52.030;113.524;2022-10-15T09:16:00;10.02;;;3.58;;
69419;SDS011;56612;52.030;113.524;2022-10-15T09:22:41;15.20;;;5.90;;
69419;SDS011;56612;52.030;113.524;2022-10-15T09:25:48;12.73;;;4.50;;
69419;SDS011;56612;52.030;113.524;2022-10-15T09:35:42;16.05;;;4.07;;
69419;SDS011;56612;52.030;113.524;2022-10-15T09:45:11;8.82;;;2.60;;
69419;SDS011;56612;52.030;113.524;2022-10-15T09:48:17;8.00;;;2.00;;
69419;SDS011;56612;52.030;113.524;2022-10-15T09:51:29;8.07;;;2.15;;
69419;SDS011;56612;52.030;113.524;2022-10-15T09:54:52;5.60;;;2.07;;
69419;SDS011;56612;52.030;113.524;2022-10-15T09:58:02;5.50;;;1.63;;
69419;SDS011;56612;52.030;113.524;2022-10-15T10:01:19;6.53;;;2.35;;
69419;SDS011;56612;52.030;113.524;2022-10-15T10:04:25;8.18;;;2.60;;
69419;SDS011;56612;52.030;113.524;2022-10-15T10:10:37;9.77;;;3.20;;
69419;SDS011;56612;52.030;113.524;2022-10-15T10:17:15;13.35;;;5.03;;
69419;SDS011;56612;52.030;113.524;2022-10-15T10:20:24;10.30;;;4.00;;
69419;SDS011;56612;52.030;113.524;2022-10-15T10:23:33;16.13;;;5.35;;
69419;SDS011;56612;52.030;113.524;2022-10-15T10:26:39;11.07;;;3.43;;
69419;SDS011;56612;52.030;113.524;2022-10-15T10:29:43;36.40;;;10.73;;
69419;SDS011;56612;52.030;113.524;2022-10-15T10:33:03;34.92;;;10.73;;
69419;SDS011;56612;52.030;113.524;2022-10-15T10:36:17;59.08;;;15.20;;
69419;SDS011;56612;52.030;113.524;2022-10-15T10:39:50;26.35;;;8.63;;
69419;SDS011;56612;52.030;113.524;2022-10-15T10:43:22;19.27;;;4.00;;
69419;SDS011;56612;52.030;113.524;2022-10-15T10:46:29;12.50;;;4.30;;
69419;SDS011;56612;52.030;113.524;2022-10-15T10:49:33;8.27;;;2.75;;
69419;SDS011;56612;52.030;113.524;2022-10-15T10:52:41;8.95;;;2.75;;
69419;SDS011;56612;52.030;113.524;2022-10-15T10:55:45;8.80;;;2.60;;
69419;SDS011;56612;52.030;113.524;2022-10-15T10:58:53;7.63;;;2.50;;
69419;SDS011;56612;52.030;113.524;2022-10-15T11:02:02;14.03;;;3.70;;
69419;SDS011;56612;52.030;113.524;2022-10-15T11:05:10;11.93;;;3.58;;
69419;SDS011;56612;52.030;113.524;2022-10-15T11:08:20;9.95;;;3.15;;
69419;SDS011;56612;52.030;113.524;2022-10-15T11:19:07;9.33;;;2.57;;
69419;SDS011;56612;52.030;113.524;2022-10-15T11:30:26;15.45;;;5.88;;
69419;SDS011;56612;52.030;113.524;2022-10-15T11:34:21;26.43;;;9.17;;
69419;SDS011;56612;52.030;113.524;2022-10-15T11:37:17;15.43;;;6.43;;
69419;SDS011;56612;52.030;113.524;2022-10-15T11:44:46;10.75;;;3.40;;
69419;SDS011;56612;52.030;113.524;2022-10-15T11:55:34;8.60;;;3.13;;
69419;SDS011;56612;52.030;113.524;2022-10-15T11:58:56;12.07;;;2.97;;
69419;SDS011;56612;52.030;113.524;2022-10-15T12:05:37;7.50;;;2.47;;
69419;SDS011;56612;52.030;113.524;2022-10-15T12:08:45;14.63;;;5.03;;
69419;SDS011;56612;52.030;113.524;2022-10-15T12:11:54;16.73;;;6.20;;
69419;SDS011;56612;52.030;113.524;2022-10-15T12:15:47;14.88;;;5.10;;
69419;SDS011;56612;52.030;113.524;2022-10-15T12:22:30;19.13;;;5.63;;
69419;SDS011;56612;52.030;113.524;2022-10-15T12:28:46;9.37;;;3.10;;
69419;SDS011;56612;52.030;113.524;2022-10-15T12:31:52;11.80;;;3.08;;
69419;SDS011;56612;52.030;113.524;2022-10-15T12:35:01;15.68;;;5.20;;
69419;SDS011;56612;52.030;113.524;2022-10-15T12:38:24;19.00;;;5.85;;
69419;SDS011;56612;52.030;113.524;2022-10-15T12:41:40;9.93;;;2.73;;
69419;SDS011;56612;52.030;113.524;2022-10-15T12:44:49;8.90;;;2.17;;
69419;SDS011;56612;52.030;113.524;2022-10-15T12:55:01;9.82;;;3.03;;
69419;SDS011;56612;52.030;113.524;2022-10-15T12:57:52;17.20;;;5.80;;
69419;SDS011;56612;52.030;113.524;2022-10-15T13:00:57;11.17;;;4.03;;
69419;SDS011;56612;52.030;113.524;2022-10-15T13:04:08;9.68;;;2.90;;
69419;SDS011;56612;52.030;113.524;2022-10-15T13:07:12;6.95;;;2.10;;
69419;SDS011;56612;52.030;113.524;2022-10-15T13:10:19;6.65;;;2.05;;
69419;SDS011;56612;52.030;113.524;2022-10-15T13:13:30;6.13;;;1.27;;
69419;SDS011;56612;52.030;113.524;2022-10-15T13:16:36;4.43;;;1.07;;
69419;SDS011;56612;52.030;113.524;2022-10-15T13:19:45;4.82;;;1.60;;
69419;SDS011;56612;52.030;113.524;2022-10-15T13:26:31;5.90;;;1.10;;
69419;SDS011;56612;52.030;113.524;2022-10-15T13:29:35;6.03;;;1.37;;
69419;SDS011;56612;52.030;113.524;2022-10-15T13:35:54;5.95;;;1.67;;
69419;SDS011;56612;52.030;113.524;2022-10-15T13:38:58;6.70;;;2.00;;
69419;SDS011;56612;52.030;113.524;2022-10-15T13:42:23;7.55;;;2.10;;
69419;SDS011;56612;52.030;113.524;2022-10-15T13:45:28;8.80;;;2.80;;
69419;SDS011;56612;52.030;113.524;2022-10-15T13:48:39;12.90;;;2.93;;
69419;SDS011;56612;52.030;113.524;2022-10-15T13:51:46;8.38;;;2.70;;
69419;SDS011;56612;52.030;113.524;2022-10-15T13:54:54;11.73;;;3.45;;
69419;SDS011;56612;52.030;113.524;2022-10-15T13:58:01;9.07;;;2.65;;
69419;SDS011;56612;52.030;113.524;2022-10-15T14:01:17;12.13;;;2.60;;
69419;SDS011;56612;52.030;113.524;2022-10-15T14:04:23;10.47;;;3.77;;
69419;SDS011;56612;52.030;113.524;2022-10-15T14:07:26;8.45;;;2.75;;
69419;SDS011;56612;52.030;113.524;2022-10-15T14:10:30;7.25;;;2.50;;
69419;SDS011;56612;52.030;113.524;2022-10-15T14:13:33;7.32;;;2.50;;
69419;SDS011;56612;52.030;113.524;2022-10-15T14:16:45;6.27;;;1.40;;
69419;SDS011;56612;52.030;113.524;2022-10-15T14:19:53;5.80;;;1.80;;
69419;SDS011;56612;52.030;113.524;2022-10-15T14:23:22;4.68;;;1.38;;
69419;SDS011;56612;52.030;113.524;2022-10-15T14:26:26;33.90;;;9.82;;
69419;SDS011;56612;52.030;113.524;2022-10-15T14:29:39;5.65;;;1.60;;
69419;SDS011;56612;52.030;113.524;2022-10-15T14:32:48;4.40;;;1.17;;
69419;SDS011;56612;52.030;113.524;2022-10-15T14:36:06;4.80;;;1.10;;
69419;SDS011;56612;52.030;113.524;2022-10-15T14:39:20;4.57;;;1.00;;
69419;SDS011;56612;52.030;113.524;2022-10-15T14:42:40;9.07;;;1.65;;
69419;SDS011;56612;52.030;113.524;2022-10-15T14:48:55;7.13;;;2.30;;
69419;SDS011;56612;52.030;113.524;2022-10-15T14:52:02;7.03;;;2.07;;
69419;SDS011;56612;52.030;113.524;2022-10-15T14:58:45;7.05;;;1.63;;
69419;SDS011;56612;52.030;113.524;2022-10-15T15:01:55;6.43;;;1.52;;
69419;SDS011;56612;52.030;113.524;2022-10-15T15:05:16;5.50;;;1.30;;
69419;SDS011;56612;52.030;113.524;2022-10-15T15:08:24;6.03;;;1.70;;
69419;SDS011;56612;52.030;113.524;2022-10-15T15:11:27;5.20;;;2.15;;
69419;SDS011;56612;52.030;113.524;2022-10-15T15:14:32;7.05;;;1.13;;
69419;SDS011;56612;52.030;113.524;2022-10-15T15:17:36;4.63;;;1.15;;
69419;SDS011;56612;52.030;113.524;2022-10-15T15:20:40;5.37;;;0.73;;
69419;SDS011;56612;52.030;113.524;2022-10-15T15:23:50;4.13;;;0.83;;
69419;SDS011;56612;52.030;113.524;2022-10-15T15:26:54;7.43;;;1.58;;
69419;SDS011;56612;52.030;113.524;2022-10-15T15:29:58;9.75;;;2.30;;
69419;SDS011;56612;52.030;113.524;2022-10-15T15:33:02;11.27;;;2.20;;
69419;SDS011;56612;52.030;113.524;2022-10-15T15:36:08;6.20;;;1.70;;
69419;SDS011;56612;52.030;113.524;2022-10-15T15:39:24;6.53;;;1.80;;
69419;SDS011;56612;52.030;113.524;2022-10-15T15:42:27;8.95;;;1.23;;
69419;SDS011;56612;52.030;113.524;2022-10-15T15:45:31;4.90;;;1.25;;
69419;SDS011;56612;52.030;113.524;2022-10-15T15:48:35;4.13;;;1.00;;
69419;SDS011;56612;52.030;113.524;2022-10-15T15:51:39;5.10;;;0.90;;
69419;SDS011;56612;52.030;113.524;2022-10-15T15:54:44;9.83;;;1.30;;
69419;SDS011;56612;52.030;113.524;2022-10-15T15:57:50;3.95;;;0.85;;
69419;SDS011;56612;52.030;113.524;2022-10-15T16:00:53;4.82;;;0.70;;
69419;SDS011;56612;52.030;113.524;2022-10-15T16:03:56;2.58;;;0.60;;
69419;SDS011;56612;52.030;113.524;2022-10-15T16:06:59;5.40;;;1.00;;
69419;SDS011;56612;52.030;113.524;2022-10-15T16:10:02;4.87;;;0.90;;
69419;SDS011;56612;52.030;113.524;2022-10-15T16:13:08;3.40;;;0.60;;
69419;SDS011;56612;52.030;113.524;2022-10-15T16:16:11;3.20;;;0.90;;
69419;SDS011;56612;52.030;113.524;2022-10-15T16:19:15;4.05;;;0.90;;
69419;SDS011;56612;52.030;113.524;2022-10-15T16:22:18;3.60;;;1.13;;
69419;SDS011;56612;52.030;113.524;2022-10-15T16:25:22;6.63;;;0.90;;
69419;SDS011;56612;52.030;113.524;2022-10-15T16:28:30;5.40;;;1.20;;
69419;SDS011;56612;52.030;113.524;2022-10-15T16:31:35;6.15;;;0.90;;
69419;SDS011;56612;52.030;113.524;2022-10-15T16:34:39;5.30;;;0.90;;
69419;SDS011;56612;52.030;113.524;2022-10-15T16:37:43;5.43;;;1.17;;
69419;SDS011;56612;52.030;113.524;2022-10-15T16:40:48;5.17;;;1.27;;
69419;SDS011;56612;52.030;113.524;2022-10-15T16:43:52;4.28;;;1.00;;
69419;SDS011;56612;52.030;113.524;2022-10-15T16:46:56;4.15;;;1.10;;
69419;SDS011;56612;52.030;113.524;2022-10-15T16:50:00;5.30;;;0.93;;
69419;SDS011;56612;52.030;113.524;2022-10-15T16:53:04;5.73;;;0.80;;
69419;SDS011;56612;52.030;113.524;2022-10-15T16:56:10;4.93;;;0.90;;
69419;SDS011;56612;52.030;113.524;2022-10-15T16:59:16;5.75;;;0.93;;
69419;SDS011;56612;52.030;113.524;2022-10-15T17:02:19;4.72;;;0.88;;
69419;SDS011;56612;52.030;113.524;2022-10-15T17:05:23;2.92;;;0.65;;
69419;SDS011;56612;52.030;113.524;2022-10-15T17:08:28;2.87;;;0.50;;
69419;SDS011;56612;52.030;113.524;2022-10-15T17:11:40;2.50;;;0.40;;
69419;SDS011;56612;52.030;113.524;2022-10-15T17:14:47;3.95;;;0.50;;
69419;SDS011;56612;52.030;113.524;2022-10-15T17:17:55;3.63;;;0.60;;
69419;SDS011;56612;52.030;113.524;2022-10-15T17:20:58;3.80;;;0.93;;
69419;SDS011;56612;52.030;113.524;2022-10-15T17:24:03;6.00;;;1.03;;
69419;SDS011;56612;52.030;113.524;2022-10-15T17:27:08;4.77;;;0.67;;
69419;SDS011;56612;52.030;113.524;2022-10-15T17:30:12;6.22;;;1.10;;
69419;SDS011;56612;52.030;113.524;2022-10-15T17:33:16;4.20;;;0.93;;
69419;SDS011;56612;52.030;113.524;2022-10-15T17:36:20;4.28;;;1.38;;
69419;SDS011;56612;52.030;113.524;2022-10-15T17:39:25;2.47;;;0.60;;
69419;SDS011;56612;52.030;113.524;2022-10-15T17:42:29;5.13;;;0.93;;
69419;SDS011;56612;52.030;113.524;2022-10-15T17:45:33;4.50;;;0.90;;
69419;SDS011;56612;52.030;113.524;2022-10-15T17:48:37;5.35;;;0.90;;
69419;SDS011;56612;52.030;113.524;2022-10-15T17:51:42;2.63;;;0.63;;
69419;SDS011;56612;52.030;113.524;2022-10-15T17:54:46;8.73;;;0.60;;
69419;SDS011;56612;52.030;113.524;2022-10-15T17:57:50;5.20;;;1.20;;
69419;SDS011;56612;52.030;113.524;2022-10-15T18:00:55;4.53;;;1.02;;
69419;SDS011;56612;52.030;113.524;2022-10-15T18:04:00;5.10;;;1.00;;
69419;SDS011;56612;52.030;113.524;2022-10-15T18:07:03;9.80;;;1.65;;
69419;SDS011;56612;52.030;113.524;2022-10-15T18:10:07;8.87;;;1.70;;
69419;SDS011;56612;52.030;113.524;2022-10-15T18:13:13;6.67;;;1.20;;
69419;SDS011;56612;52.030;113.524;2022-10-15T18:16:17;8.43;;;1.40;;
69419;SDS011;56612;52.030;113.524;2022-10-15T18:19:22;6.25;;;1.50;;
69419;SDS011;56612;52.030;113.524;2022-10-15T18:22:28;5.63;;;1.05;;
69419;SDS011;56612;52.030;113.524;2022-10-15T18:25:32;7.17;;;0.90;;
69419;SDS011;56612;52.030;113.524;2022-10-15T18:28:36;8.67;;;0.90;;
69419;SDS011;56612;52.030;113.524;2022-10-15T18:31:40;7.75;;;1.25;;
69419;SDS011;56612;52.030;113.524;2022-10-15T18:34:44;2.85;;;0.55;;
69419;SDS011;56612;52.030;113.524;2022-10-15T18:37:48;4.75;;;0.55;;
69419;SDS011;56612;52.030;113.524;2022-10-15T18:40:53;3.33;;;0.53;;
69419;SDS011;56612;52.030;113.524;2022-10-15T18:43:59;5.07;;;0.70;;
69419;SDS011;56612;52.030;113.524;2022-10-15T18:47:05;3.55;;;0.70;;
69419;SDS011;56612;52.030;113.524;2022-10-15T18:50:15;2.38;;;0.50;;
69419;SDS011;56612;52.030;113.524;2022-10-15T18:53:20;5.43;;;0.77;;
69419;SDS011;56612;52.030;113.524;2022-10-15T18:56:27;5.40;;;0.80;;
69419;SDS011;56612;52.030;113.524;2022-10-15T18:59:31;3.40;;;0.70;;
69419;SDS011;56612;52.030;113.524;2022-10-15T19:02:35;3.42;;;0.60;;
69419;SDS011;56612;52.030;113.524;2022-10-15T19:05:39;4.68;;;0.57;;
69419;SDS011;56612;52.030;113.524;2022-10-15T19:08:42;4.22;;;0.50;;
69419;SDS011;56612;52.030;113.524;2022-10-15T19:11:47;4.20;;;0.53;;
69419;SDS011;56612;52.030;113.524;2022-10-15T19:14:52;4.17;;;0.70;;
69419;SDS011;56612;52.030;113.524;2022-10-15T19:17:56;2.70;;;0.40;;
69419;SDS011;56612;52.030;113.524;2022-10-15T19:20:59;4.00;;;0.70;;
69419;SDS011;56612;52.030;113.524;2022-10-15T19:24:03;6.93;;;0.70;;
69419;SDS011;56612;52.030;113.524;2022-10-15T19:27:07;8.67;;;1.27;;
69419;SDS011;56612;52.030;113.524;2022-10-15T19:30:16;5.87;;;0.50;;
69419;SDS011;56612;52.030;113.524;2022-10-15T19:33:20;4.63;;;0.60;;
69419;SDS011;56612;52.030;113.524;2022-10-15T19:36:28;6.45;;;0.70;;
69419;SDS011;56612;52.030;113.524;2022-10-15T19:39:35;8.15;;;0.60;;
69419;SDS011;56612;52.030;113.524;2022-10-15T19:42:39;6.63;;;0.63;;
69419;SDS011;56612;52.030;113.524;2022-10-15T19:45:43;3.57;;;0.60;;
69419;SDS011;56612;52.030;113.524;2022-10-15T19:48:47;4.07;;;0.73;;
69419;SDS011;56612;52.030;113.524;2022-10-15T19:51:55;5.25;;;0.52;;
69419;SDS011;56612;52.030;113.524;2022-10-15T19:54:59;3.05;;;0.50;;
69419;SDS011;56612;52.030;113.524;2022-10-15T19:58:04;3.20;;;0.60;;
69419;SDS011;56612;52.030;113.524;2022-10-15T20:01:08;2.47;;;0.40;;